Time;durP1;ratioP1;P1;durP2;ratioP2;P2;SDS_P1;SDS_P2;PMS_P1;PMS_P2;Temp;Humidity;BMP_temperature;BMP_pressure;BME280_temperature;BME280_humidity;BME280_pressure;Samples;Min_cycle;Max_cycle;Signal;HPM_P1;HPM_P2
2020/12/17 00:00:24;;;;;;;9.98;6.87;;;;;;;1.85;84.10;100386.74;1849006;77;21135;-74
2020/12/17 00:02:51;;;;;;;8.80;6.55;;;;;;;1.83;84.23;100383.72;1847604;77;21036;-74
2020/12/17 00:05:19;;;;;;;8.48;5.80;;;;;;;1.82;84.25;100385.85;1846991;77;21047;-74
2020/12/17 00:07:46;;;;;;;8.00;6.28;;;;;;;1.80;84.37;100384.55;1847003;77;21511;-74
2020/12/17 00:10:14;;;;;;;9.18;6.15;;;;;;;1.78;84.64;100384.99;1847051;77;21503;-73
2020/12/17 00:12:44;;;;;;;7.97;5.62;;;;;;;1.82;84.95;100386.71;1846966;77;21500;-73
2020/12/17 00:15:15;;;;;;;8.00;5.92;;;;;;;1.91;84.85;100388.51;1847054;77;21142;-74
2020/12/17 00:17:49;;;;;;;6.95;4.95;;;;;;;1.94;84.72;100388.11;1847099;77;21599;-74
2020/12/17 00:20:20;;;;;;;7.47;5.47;;;;;;;1.98;84.58;100392.43;1847107;77;21445;-74
2020/12/17 00:22:48;;;;;;;7.10;5.60;;;;;;;2.00;84.56;100391.12;1847050;77;21391;-74
2020/12/17 00:25:18;;;;;;;7.95;6.20;;;;;;;2.01;84.57;100389.86;1847137;77;21075;-74
2020/12/17 00:27:47;;;;;;;8.00;5.87;;;;;;;2.04;84.61;100391.17;1847235;77;21083;-74
2020/12/17 00:30:16;;;;;;;8.10;5.65;;;;;;;2.07;84.32;100389.91;1847131;77;21097;-74
2020/12/17 00:32:45;;;;;;;6.72;5.72;;;;;;;2.01;84.29;100389.86;1847136;77;21083;-74
2020/12/17 00:35:13;;;;;;;6.87;5.28;;;;;;;2.03;84.42;100386.89;1847088;77;22142;-74
2020/12/17 00:37:41;;;;;;;9.98;6.47;;;;;;;2.03;84.36;100388.59;1847085;77;21197;-74
2020/12/17 00:40:11;;;;;;;8.65;6.20;;;;;;;2.02;84.46;100394.56;1847137;77;21028;-74
2020/12/17 00:42:45;;;;;;;9.38;6.75;;;;;;;2.03;84.43;100391.16;1847135;77;21052;-74
2020/12/17 00:45:16;;;;;;;8.58;5.80;;;;;;;2.00;84.38;100392.41;1847265;77;21170;-74
2020/12/17 00:47:44;;;;;;;6.67;4.42;;;;;;;1.98;84.50;100400.55;1847195;77;22259;-74
2020/12/17 00:50:12;;;;;;;8.88;6.17;;;;;;;1.97;84.40;100398.41;1847061;77;21079;-74
2020/12/17 00:52:40;;;;;;;7.92;6.35;;;;;;;1.89;84.35;100398.75;1847119;77;21040;-74
2020/12/17 00:55:07;;;;;;;10.15;7.22;;;;;;;1.81;84.55;100394.39;1847185;77;21032;-74
2020/12/17 00:57:36;;;;;;;13.25;8.60;;;;;;;1.74;84.71;100399.91;1847170;77;21119;-74
2020/12/17 01:00:07;;;;;;;12.18;8.78;;;;;;;1.71;84.97;100399.87;1847127;77;21797;-74
2020/12/17 01:02:35;;;;;;;13.80;9.70;;;;;;;1.73;85.20;100395.63;1846822;77;21460;-74
2020/12/17 01:05:04;;;;;;;11.38;8.23;;;;;;;1.79;85.34;100394.41;1847091;77;21182;-74
2020/12/17 01:07:32;;;;;;;11.53;7.67;;;;;;;1.84;85.21;100393.14;1847077;77;21155;-74
2020/12/17 01:10:00;;;;;;;10.85;7.58;;;;;;;1.79;85.16;100389.70;1847079;77;21039;-74
2020/12/17 01:12:27;;;;;;;9.53;6.30;;;;;;;1.77;85.28;100390.11;1847131;77;21870;-74
2020/12/17 01:14:55;;;;;;;7.65;6.05;;;;;;;1.78;85.33;100387.56;1846928;77;21566;-74
2020/12/17 01:17:22;;;;;;;7.95;5.42;;;;;;;1.80;85.27;100390.14;1847176;77;21571;-74
2020/12/17 01:19:50;;;;;;;11.57;5.83;;;;;;;1.78;85.13;100384.99;1847160;77;21477;-75
2020/12/17 01:22:18;;;;;;;7.62;6.15;;;;;;;1.73;85.19;100384.95;1847121;77;21035;-75
2020/12/17 01:24:46;;;;;;;8.55;5.75;;;;;;;1.71;85.45;100385.77;1847117;77;21381;-75
2020/12/17 01:27:13;;;;;;;9.60;6.60;;;;;;;1.72;85.38;100393.48;1847038;77;21127;-75
2020/12/17 01:29:42;;;;;;;10.23;6.42;;;;;;;1.70;85.49;100394.31;1847063;77;21135;-75
2020/12/17 01:32:10;;;;;;;12.75;7.15;;;;;;;1.73;85.53;100390.50;1847056;77;21027;-75
2020/12/17 01:34:37;;;;;;;11.70;6.92;;;;;;;1.76;85.56;100387.97;1847216;77;21455;-75
2020/12/17 01:37:06;;;;;;;9.58;6.90;;;;;;;1.79;85.53;100382.00;1847043;77;21372;-75
2020/12/17 01:39:34;;;;;;;10.72;6.47;;;;;;;1.83;85.43;100386.29;1847010;77;21520;-75
2020/12/17 01:42:01;;;;;;;9.15;6.25;;;;;;;1.84;85.40;100385.02;1847079;77;21445;-75
2020/12/17 01:44:29;;;;;;;8.13;6.30;;;;;;;1.86;85.20;100379.91;1847072;77;21031;-75
2020/12/17 01:46:57;;;;;;;8.95;7.05;;;;;;;1.80;85.03;100374.30;1847081;77;21093;-75
2020/12/17 01:49:26;;;;;;;8.55;5.70;;;;;;;1.79;85.21;100378.16;1847058;77;21127;-75
2020/12/17 01:51:53;;;;;;;8.40;6.22;;;;;;;1.78;85.21;100371.31;1847035;77;21097;-75
2020/12/17 01:54:22;;;;;;;10.48;6.30;;;;;;;1.72;85.05;100368.27;1847032;77;21464;-75
2020/12/17 01:56:56;;;;;;;8.63;6.10;;;;;;;1.63;85.08;100369.45;1847060;77;21147;-75
2020/12/17 01:59:25;;;;;;;7.00;5.85;;;;;;;1.56;85.25;100371.55;1847088;77;21107;-75
2020/12/17 02:01:54;;;;;;;6.78;5.17;;;;;;;1.54;85.59;100375.80;1847067;77;21366;-75
2020/12/17 02:04:25;;;;;;;7.33;5.90;;;;;;;1.55;85.52;100368.54;1848919;77;21083;-75
2020/12/17 02:06:53;;;;;;;7.12;6.10;;;;;;;1.51;85.48;100368.06;1849264;77;21547;-75
2020/12/17 02:09:21;;;;;;;8.00;5.78;;;;;;;1.49;85.80;100367.19;1849156;77;21139;-75
2020/12/17 02:11:57;;;;;;;9.08;5.65;;;;;;;1.51;85.87;100365.50;1849195;77;21457;-75
2020/12/17 02:14:25;;;;;;;6.78;4.92;;;;;;;1.51;85.86;100366.36;1849134;77;21362;-75
2020/12/17 02:16:53;;;;;;;6.60;4.85;;;;;;;1.51;85.70;100364.22;1849108;77;21134;-75
2020/12/17 02:19:21;;;;;;;6.67;5.33;;;;;;;1.47;85.65;100366.31;1849229;77;21459;-75
2020/12/17 02:21:49;;;;;;;5.97;4.95;;;;;;;1.45;85.83;100358.61;1849082;77;21131;-75
2020/12/17 02:24:21;;;;;;;5.60;4.42;;;;;;;1.44;85.90;100359.45;1849168;77;21122;-75
2020/12/17 02:26:48;;;;;;;6.53;4.55;;;;;;;1.41;85.84;100359.84;1849461;77;21353;-75
2020/12/17 02:29:16;;;;;;;5.85;4.78;;;;;;;1.36;85.93;100362.37;1849076;77;21099;-75
2020/12/17 02:31:44;;;;;;;4.87;4.00;;;;;;;1.33;85.99;100363.63;1849145;77;21075;-74
2020/12/17 02:34:13;;;;;;;5.37;4.00;;;;;;;1.33;86.05;100353.38;1849091;77;21150;-75
2020/12/17 02:36:41;;;;;;;6.40;4.53;;;;;;;1.29;86.18;100357.61;1849174;77;21056;-75
2020/12/17 02:39:08;;;;;;;6.58;4.87;;;;;;;1.29;86.26;100356.33;1849157;77;21380;-75
2020/12/17 02:41:37;;;;;;;5.58;4.40;;;;;;;1.29;86.44;100354.18;1849148;77;21556;-75
2020/12/17 02:44:05;;;;;;;4.60;3.95;;;;;;;1.33;86.36;100364.91;1849110;77;21079;-75
2020/12/17 02:46:32;;;;;;;5.20;4.10;;;;;;;1.33;86.28;100361.06;1849595;77;21186;-75
2020/12/17 02:49:00;;;;;;;6.20;4.78;;;;;;;1.34;86.37;100364.92;1849390;77;21036;-75
2020/12/17 02:51:27;;;;;;;7.10;4.78;;;;;;;1.41;86.42;100362.40;1846387;77;22437;-75
2020/12/17 02:53:55;;;;;;;8.13;4.92;;;;;;;1.44;86.28;100363.30;1849160;77;21550;-75
2020/12/17 02:56:22;;;;;;;6.58;4.55;;;;;;;1.50;86.38;100362.50;1849096;77;21126;-76
2020/12/17 02:58:50;;;;;;;6.33;4.75;;;;;;;1.56;86.23;100364.71;1849076;77;21056;-75
2020/12/17 03:01:18;;;;;;;6.17;4.37;;;;;;;1.62;85.96;100370.30;1849173;77;21047;-75
2020/12/17 03:03:45;;;;;;;8.15;4.80;;;;;;;1.68;85.80;100364.80;1847652;77;21755;-75
2020/12/17 03:06:13;;;;;;;6.72;4.78;;;;;;;1.74;85.62;100372.98;1846921;77;21134;-75
2020/12/17 03:08:40;;;;;;;7.10;5.33;;;;;;;1.77;85.30;100370.45;1847098;77;21052;-75
2020/12/17 03:11:09;;;;;;;6.80;5.00;;;;;;;1.74;84.89;100371.70;1846981;77;21059;-76
2020/12/17 03:13:36;;;;;;;6.00;4.40;;;;;;;1.71;84.95;100371.67;1846936;77;21119;-75
2020/12/17 03:16:04;;;;;;;4.55;3.75;;;;;;;1.70;84.67;100368.25;1846997;77;21196;-76
2020/12/17 03:18:31;;;;;;;4.85;3.62;;;;;;;1.65;84.55;100374.17;1846953;77;21074;-76
2020/12/17 03:20:58;;;;;;;5.28;3.85;;;;;;;1.61;84.67;100369.43;1846991;77;21468;-75
2020/12/17 03:23:26;;;;;;;4.42;3.52;;;;;;;1.59;84.73;100362.60;1846937;77;21555;-75
2020/12/17 03:25:54;;;;;;;3.62;3.22;;;;;;;1.59;84.83;100367.73;1847013;77;21091;-75
2020/12/17 03:28:22;;;;;;;5.33;3.40;;;;;;;1.59;84.71;100367.30;1846983;77;21356;-76
2020/12/17 03:30:49;;;;;;;4.15;3.17;;;;;;;1.59;84.66;100365.16;1847010;77;21491;-75
2020/12/17 03:33:17;;;;;;;4.08;3.33;;;;;;;1.61;84.68;100366.01;1846971;77;21052;-75
2020/12/17 03:35:45;;;;;;;3.67;3.27;;;;;;;1.62;84.54;100374.14;1846987;77;21103;-76
2020/12/17 03:38:13;;;;;;;4.40;3.55;;;;;;;1.63;84.63;100370.73;1846987;77;21162;-76
2020/12/17 03:40:40;;;;;;;4.22;3.58;;;;;;;1.66;84.78;100367.78;1847099;77;21480;-76
2020/12/17 03:43:08;;;;;;;7.00;4.42;;;;;;;1.74;84.76;100365.29;1846878;77;21480;-76
2020/12/17 03:45:35;;;;;;;4.45;3.92;;;;;;;1.82;84.68;100367.48;1847050;77;21087;-76
2020/12/17 03:48:03;;;;;;;4.45;3.55;;;;;;;1.88;84.32;100366.25;1846996;77;21162;-76
2020/12/17 03:50:31;;;;;;;4.70;3.52;;;;;;;1.92;84.18;100363.29;1846987;77;21048;-76
2020/12/17 03:52:59;;;;;;;4.40;4.00;;;;;;;1.97;84.05;100365.48;1846991;77;21223;-76
2020/12/17 03:55:26;;;;;;;5.80;4.62;;;;;;;1.96;83.67;100367.61;1846836;77;21102;-76
2020/12/17 03:57:54;;;;;;;6.15;4.78;;;;;;;1.91;83.61;100370.55;1846950;77;21114;-76
2020/12/17 04:00:21;;;;;;;7.58;6.03;;;;;;;1.89;83.82;100375.67;1846956;77;21043;-76
2020/12/17 04:02:49;;;;;;;8.40;6.15;;;;;;;1.93;83.81;100374.84;1846806;77;21048;-76
2020/12/17 04:05:16;;;;;;;9.05;7.05;;;;;;;1.97;83.72;100365.48;1847075;77;21124;-76
2020/12/17 04:07:44;;;;;;;9.10;6.90;;;;;;;2.03;83.62;100366.36;1846905;77;21119;-76
2020/12/17 04:10:11;;;;;;;8.23;6.70;;;;;;;2.08;83.36;100367.26;1847026;77;21147;-76
2020/12/17 04:12:39;;;;;;;8.30;6.42;;;;;;;2.08;83.22;100363.83;1846990;77;21032;-76
2020/12/17 04:15:06;;;;;;;8.58;6.67;;;;;;;2.11;83.19;100360.43;1847087;77;21079;-76
2020/12/17 04:17:34;;;;;;;11.83;6.80;;;;;;;2.12;82.97;100363.02;1847068;77;22328;-76
2020/12/17 04:20:01;;;;;;;7.95;5.55;;;;;;;2.07;82.83;100361.69;1846926;77;21063;-76
2020/12/17 04:22:29;;;;;;;6.03;4.37;;;;;;;2.06;82.87;100364.24;1846877;77;21031;-76
2020/12/17 04:24:56;;;;;;;5.62;4.28;;;;;;;2.05;82.71;100364.66;1846956;77;21048;-76
2020/12/17 04:27:24;;;;;;;6.47;4.58;;;;;;;2.00;82.57;100373.17;1847044;77;21090;-76
2020/12/17 04:29:51;;;;;;;5.92;4.20;;;;;;;1.93;82.79;100376.13;1847064;77;22090;-77
2020/12/17 04:32:19;;;;;;;6.45;4.65;;;;;;;1.88;82.77;100376.94;1847001;77;21071;-76
2020/12/17 04:34:47;;;;;;;4.72;3.95;;;;;;;1.82;82.97;100383.28;1846924;77;21115;-76
2020/12/17 04:37:15;;;;;;;5.12;3.92;;;;;;;1.84;83.30;100382.87;1846957;77;21622;-76
2020/12/17 04:39:43;;;;;;;4.42;3.60;;;;;;;1.90;83.28;100382.94;1846984;77;21134;-76
2020/12/17 04:42:10;;;;;;;5.25;4.40;;;;;;;1.96;83.21;100385.56;1846978;77;21179;-76
2020/12/17 04:44:38;;;;;;;6.42;4.75;;;;;;;2.00;83.22;100381.73;1846923;77;21060;-76
2020/12/17 04:47:05;;;;;;;5.95;4.72;;;;;;;2.04;83.09;100391.17;1821229;77;21119;-76
2020/12/17 04:49:43;;;;;;;6.30;4.65;;;;;;;2.06;82.88;100379.64;1846874;77;21170;-76
2020/12/17 04:52:10;;;;;;;6.08;4.85;;;;;;;2.03;82.89;100383.03;1846218;77;21051;-76
2020/12/17 04:54:38;;;;;;;7.15;4.83;;;;;;;2.05;82.88;100391.61;1821285;77;22248;-76
2020/12/17 04:57:13;;;;;;;8.13;6.45;;;;;;;2.08;82.78;100390.36;1846921;77;21128;-76
2020/12/17 04:59:49;;;;;;;9.65;7.80;;;;;;;2.10;82.69;100389.08;1846980;77;21036;-76
2020/12/17 05:02:20;;;;;;;7.92;6.60;;;;;;;2.10;82.74;100395.50;1847026;77;21067;-75
2020/12/17 05:04:50;;;;;;;7.22;5.67;;;;;;;2.07;82.46;100402.75;1848652;77;21460;-75
2020/12/17 05:07:23;;;;;;;7.03;5.78;;;;;;;2.03;82.59;100412.55;1849128;77;21448;-75
2020/12/17 05:09:51;;;;;;;7.35;5.62;;;;;;;2.00;82.64;100411.23;1849428;77;27230;-75
2020/12/17 05:12:19;;;;;;;7.08;5.72;;;;;;;2.00;82.64;100409.09;1849166;77;21028;-75
2020/12/17 05:14:47;;;;;;;8.68;7.78;;;;;;;2.00;82.66;100409.95;1849126;77;21136;-75
2020/12/17 05:17:16;;;;;;;8.93;6.50;;;;;;;2.03;82.72;100407.41;1849268;77;21162;-75
2020/12/17 05:19:44;;;;;;;14.90;9.70;;;;;;;2.05;82.67;100417.69;1849182;77;21194;-76
2020/12/17 05:22:14;;;;;;;14.68;9.65;;;;;;;2.04;82.59;100417.25;1819717;77;21150;-76
2020/12/17 05:24:45;;;;;;;17.02;10.75;;;;;;;2.01;82.72;100418.51;1849182;77;21040;-75
2020/12/17 05:27:13;;;;;;;20.57;13.05;;;;;;;2.04;82.72;100418.11;1849274;77;21587;-76
2020/12/17 05:29:42;;;;;;;18.40;12.10;;;;;;;2.05;82.69;100422.40;1849272;77;21048;-76
2020/12/17 05:32:11;;;;;;;21.17;16.82;;;;;;;2.07;82.74;100431.39;1849203;77;21359;-76
2020/12/17 05:34:39;;;;;;;15.20;12.20;;;;;;;2.07;82.80;100432.25;1849143;77;21063;-76
2020/12/17 05:37:08;;;;;;;17.65;12.82;;;;;;;2.10;82.77;100429.28;1849171;77;21028;-76
2020/12/17 05:39:43;;;;;;;13.98;11.03;;;;;;;2.12;82.73;100430.16;1849132;77;21127;-76
2020/12/17 05:42:12;;;;;;;13.45;10.48;;;;;;;2.15;82.76;100433.61;1849211;77;21043;-76
2020/12/17 05:44:41;;;;;;;11.90;8.35;;;;;;;2.21;82.70;100432.78;1849288;77;21444;-76
2020/12/17 05:47:13;;;;;;;9.73;7.80;;;;;;;2.26;82.50;100436.25;1819102;77;21138;-76
2020/12/17 05:49:41;;;;;;;9.70;7.60;;;;;;;2.21;82.30;100434.92;1849337;77;28498;-76
2020/12/17 05:52:22;;;;;;;7.40;6.20;;;;;;;2.11;82.35;100442.55;1849116;77;21483;-76
2020/12/17 05:54:58;;;;;;;6.95;6.12;;;;;;;2.08;82.62;100445.52;1849213;77;21036;-76
2020/12/17 05:57:26;;;;;;;10.93;8.55;;;;;;;2.04;82.63;100447.63;1849186;77;21366;-77
2020/12/17 06:00:14;;;;;;;12.03;9.18;;;;;;;1.99;82.62;100452.30;1846272;77;21150;-76
2020/12/17 06:02:41;;;;;;;10.25;8.23;;;;;;;1.96;82.93;100455.69;1849336;77;21099;-77
2020/12/17 06:05:30;;;;;;;11.70;9.00;;;;;;;1.98;83.16;100455.70;1850883;77;21150;-77
2020/12/17 06:07:59;;;;;;;13.15;9.40;;;;;;;2.02;83.21;100449.73;1850624;77;21138;-76
2020/12/17 06:10:29;;;;;;;12.25;8.75;;;;;;;2.08;83.38;100450.66;1851190;77;21679;-75
2020/12/17 06:13:02;;;;;;;18.57;13.03;;;;;;;2.16;83.35;100455.00;1851848;77;21099;-74
2020/12/17 06:15:30;;;;;;;16.40;11.53;;;;;;;2.21;83.34;100452.02;1852718;77;21472;-75
2020/12/17 06:18:01;;;;;;;20.62;11.70;;;;;;;2.23;83.09;100454.19;1852340;77;21393;-72
2020/12/17 06:20:31;;;;;;;13.05;9.65;;;;;;;2.23;83.16;100456.33;1852437;77;21079;-72
2020/12/17 06:23:02;;;;;;;10.93;9.18;;;;;;;2.25;83.17;100459.77;1852963;77;21654;-74
2020/12/17 06:25:33;;;;;;;11.70;8.50;;;;;;;2.22;83.07;100459.74;1852345;77;21079;-74
2020/12/17 06:28:04;;;;;;;9.95;8.00;;;;;;;2.19;83.06;100464.02;1852257;77;21166;-74
2020/12/17 06:30:33;;;;;;;7.62;6.30;;;;;;;2.14;83.19;100466.54;1850077;77;21370;-74
2020/12/17 06:33:05;;;;;;;11.78;6.62;;;;;;;2.18;83.28;100469.58;1852163;77;21035;-74
2020/12/17 06:35:51;;;;;;;14.13;8.85;;;;;;;2.21;83.18;100475.98;1852297;77;21349;-74
2020/12/17 06:38:27;;;;;;;10.85;7.60;;;;;;;2.24;83.31;100470.02;1852286;77;21072;-74
2020/12/17 06:40:55;;;;;;;8.98;6.87;;;;;;;2.27;83.19;100468.34;1852313;77;21115;-74
2020/12/17 06:43:36;;;;;;;11.90;10.75;;;;;;;2.26;83.15;100470.90;1851407;77;21095;-74
2020/12/17 06:46:04;;;;;;;10.70;6.62;;;;;;;2.26;83.21;100470.90;1852340;77;21111;-73
2020/12/17 06:48:40;;;;;;;8.08;6.60;;;;;;;2.25;83.12;100474.31;1851798;77;21768;-73
2020/12/17 06:51:39;;;;;;;7.47;5.28;;;;;;;2.23;83.02;100477.28;1843302;77;21490;-71
2020/12/17 06:54:19;;;;;;;8.48;6.17;;;;;;;2.19;83.13;100489.26;1840209;77;21521;-72
2020/12/17 06:57:16;;;;;;;10.78;7.42;;;;;;;2.14;83.38;100483.64;1828465;76;21249;-71
2020/12/17 07:00:19;;;;;;;;;;;;;;;;;;;;;
2020/12/17 07:02:55;;;;;;;10.60;7.85;;;;;;;2.12;83.50;100493.89;1801604;77;21341;-73
2020/12/17 07:05:35;;;;;;;12.65;8.00;;;;;;;2.11;83.57;100483.61;1817352;76;22061;-75
2020/12/17 07:08:08;;;;;;;9.50;5.47;;;;;;;2.12;83.76;100490.05;1803798;77;21174;-79
2020/12/17 07:10:46;;;;;;;6.87;6.05;;;;;;;2.13;83.81;100482.78;1808889;79;21198;-78
2020/12/17 07:13:41;;;;;;;12.15;9.05;;;;;;;2.19;83.98;100483.27;1811363;78;21365;-79
2020/12/17 07:16:19;;;;;;;15.95;9.90;;;;;;;2.26;83.92;100487.16;1811410;79;21461;-70
2020/12/17 07:18:47;;;;;;;12.63;8.00;;;;;;;2.33;83.62;100486.38;1840084;76;21181;-72
2020/12/17 07:21:15;;;;;;;8.05;6.15;;;;;;;2.32;83.53;100481.22;1861880;76;21225;-73
2020/12/17 07:23:43;;;;;;;14.93;9.93;;;;;;;2.35;83.45;100488.53;1861973;76;21134;-76
2020/12/17 07:26:13;;;;;;;19.48;11.85;;;;;;;2.35;83.57;100491.09;1862403;76;21532;-73
2020/12/17 07:28:53;;;;;;;16.17;9.75;;;;;;;2.35;83.38;100490.23;1855377;76;21407;-73
2020/12/17 07:31:26;;;;;;;21.05;13.98;;;;;;;2.31;83.29;100493.63;1816742;77;21155;-75
2020/12/17 07:33:54;;;;;;;34.73;19.20;;;;;;;2.25;83.50;100502.55;1821802;77;21146;-72
2020/12/17 07:36:47;;;;;;;18.23;14.13;;;;;;;2.26;83.58;100500.00;1839653;77;21448;-76
2020/12/17 07:39:18;;;;;;;;;;;;;;;2.31;83.58;100500.91;1810190;77;21146;-80
2020/12/17 07:41:46;;;;;;;13.18;10.20;;;;;;;2.37;83.82;100502.25;1845473;77;21213;-76
2020/12/17 07:44:36;;;;;;;13.45;10.65;;;;;;;2.45;83.78;100499.72;1817119;77;21118;-67
2020/12/17 07:47:20;;;;;;;11.15;8.68;;;;;;;2.51;83.62;100498.91;1846436;77;21095;-70
2020/12/17 07:49:48;;;;;;;11.15;8.33;;;;;;;2.55;83.32;100499.38;1816594;77;21202;-70
2020/12/17 07:52:34;;;;;;;13.38;9.18;;;;;;;2.51;83.15;100506.61;1848075;77;21256;-71
2020/12/17 07:55:02;;;;;;;12.33;8.75;;;;;;;2.48;83.29;100507.45;1848500;77;21240;-74
2020/12/17 07:57:31;;;;;;;11.53;6.58;;;;;;;2.50;83.36;100503.19;1848972;77;21082;-77
2020/12/17 07:59:58;;;;;;;10.78;7.17;;;;;;;2.56;83.54;100498.53;1848682;77;21033;-71
2020/12/17 08:02:27;;;;;;;16.90;11.05;;;;;;;2.65;83.45;100504.58;1848931;77;21554;-74
2020/12/17 08:04:56;;;;;;;14.70;10.05;;;;;;;2.76;83.25;100514.94;1850130;77;21098;-75
2020/12/17 08:07:24;;;;;;;12.82;9.48;;;;;;;2.76;82.69;100511.95;1851127;77;21200;-77
2020/12/17 08:10:00;;;;;;;12.78;9.35;;;;;;;2.75;82.54;100506.80;1851264;77;21150;-78
2020/12/17 08:12:28;;;;;;;11.55;8.03;;;;;;;2.70;82.73;100496.48;1851609;77;21719;-74
2020/12/17 08:15:08;;;;;;;13.45;9.55;;;;;;;2.73;82.82;100509.35;1851958;77;21127;-74
2020/12/17 08:17:37;;;;;;;11.63;8.38;;;;;;;2.78;82.78;100518.38;1851597;77;21146;-75
2020/12/17 08:20:25;;;;;;;10.93;7.30;;;;;;;2.83;82.59;100510.25;1850899;77;22182;-79
2020/12/17 08:22:53;;;;;;;8.18;6.60;;;;;;;2.83;82.43;100514.53;1851402;77;21659;-74
2020/12/17 08:25:22;;;;;;;7.75;6.30;;;;;;;2.81;82.51;100508.52;1850485;77;21138;-73
2020/12/17 08:27:52;;;;;;;10.30;7.72;;;;;;;2.82;82.43;100508.53;1851270;77;21055;-68
2020/12/17 08:30:23;;;;;;;10.15;8.35;;;;;;;2.81;82.44;100508.09;1852175;77;21056;-75
2020/12/17 08:32:52;;;;;;;13.38;10.00;;;;;;;2.85;82.59;100514.13;1852263;77;21484;-75
2020/12/17 08:35:24;;;;;;;17.65;11.48;;;;;;;2.93;82.50;100512.47;1851882;77;21070;-74
2020/12/17 08:38:03;;;;;;;15.10;10.07;;;;;;;3.02;82.53;100507.37;1851348;77;21695;-72
2020/12/17 08:40:31;;;;;;;9.33;7.40;;;;;;;3.05;82.12;100509.54;1851193;77;21198;-71
2020/12/17 08:43:05;;;;;;;11.00;7.97;;;;;;;3.06;81.93;100504.83;1822921;77;21603;-72
2020/12/17 08:45:46;;;;;;;12.68;10.93;;;;;;;3.06;81.76;100514.25;1873551;76;28373;-75
2020/12/17 08:48:17;;;;;;;9.63;8.63;;;;;;;3.07;81.89;100514.69;1855716;77;21510;-72
2020/12/17 08:50:45;;;;;;;12.25;8.73;;;;;;;3.12;81.74;100511.73;1860879;77;21340;-73
2020/12/17 08:53:27;;;;;;;12.53;9.15;;;;;;;3.11;81.59;100512.16;1860345;77;21196;-77
2020/12/17 08:56:05;;;;;;;11.90;8.55;;;;;;;3.07;81.50;100511.70;1859586;77;21613;-79
2020/12/17 08:58:49;;;;;;;13.38;9.18;;;;;;;3.05;81.49;100518.53;1860614;77;21104;-74
2020/12/17 09:01:26;;;;;;;11.88;8.85;;;;;;;3.04;81.62;100518.09;1860650;77;21457;-75
2020/12/17 09:03:57;;;;;;;13.15;9.80;;;;;;;3.08;81.76;100518.98;1859645;77;21185;-72
2020/12/17 09:06:32;;;;;;;11.33;8.45;;;;;;;3.11;81.65;100512.58;1860616;77;21163;-71
2020/12/17 09:09:18;;;;;;;14.13;10.48;;;;;;;3.15;81.70;100512.17;1860911;77;20914;-73
2020/12/17 09:11:47;;;;;;;15.10;9.98;;;;;;;3.16;81.38;100509.61;1859757;77;21049;-73
2020/12/17 09:14:19;;;;;;;18.62;13.15;;;;;;;3.17;81.37;100506.61;1855877;77;21143;-75
2020/12/17 09:16:48;;;;;;;12.18;9.33;;;;;;;3.15;81.07;100508.31;1843340;77;21873;-71
2020/12/17 09:19:17;;;;;;;8.08;7.12;;;;;;;3.07;81.24;100508.27;1827942;77;21139;-77
2020/12/17 09:22:00;;;;;;;14.65;9.45;;;;;;;3.06;81.37;100506.12;1829478;77;21146;-79
2020/12/17 09:24:35;;;;;;;11.48;8.48;;;;;;;3.05;81.37;100506.97;1829203;77;21087;-78
2020/12/17 09:27:28;;;;;;;9.93;7.78;;;;;;;3.02;81.45;100505.66;1817900;78;21130;-73
2020/12/17 09:30:13;;;;;;;9.45;6.90;;;;;;;3.06;81.36;100509.97;1817869;78;21359;-74
2020/12/17 09:33:00;;;;;;;9.40;7.28;;;;;;;3.08;81.37;100508.70;1817898;79;21138;-72
2020/12/17 09:35:35;;;;;;;9.50;7.33;;;;;;;3.07;81.38;100510.41;1775186;80;21155;-73
2020/12/17 09:38:19;;;;;;;11.90;8.50;;;;;;;3.11;81.42;100509.58;1763014;81;21126;-75
2020/12/17 09:40:52;;;;;;;10.15;8.00;;;;;;;3.11;81.33;100507.02;1763266;80;21187;-75
2020/12/17 09:43:26;;;;;;;13.00;9.43;;;;;;;3.14;81.29;100501.03;1763199;81;22233;-76
2020/12/17 09:45:57;;;;;;;14.55;9.78;;;;;;;3.12;81.17;100505.30;1754170;81;21169;-77
2020/12/17 09:48:31;;;;;;;11.08;8.68;;;;;;;3.10;81.34;100503.14;1752269;81;21606;-82
2020/12/17 09:51:21;;;;;;;21.15;13.15;;;;;;;3.13;81.62;100508.73;1755031;81;21142;-81
2020/12/17 09:54:01;;;;;;;18.60;11.53;;;;;;;3.19;81.60;100512.20;1753937;81;21202;-76
2020/12/17 09:56:31;;;;;;;16.73;11.75;;;;;;;3.25;81.40;100507.49;1767483;81;21454;-80
2020/12/17 09:59:01;;;;;;;16.82;12.20;;;;;;;3.30;81.00;100505.39;1767806;81;21493;-77
2020/12/17 10:01:30;;;;;;;19.60;12.60;;;;;;;3.30;80.94;100501.53;1767298;81;21074;-76
2020/12/17 10:03:57;;;;;;;28.67;17.23;;;;;;;3.35;80.91;100507.98;1766907;81;21055;-73
2020/12/17 10:06:26;;;;;;;22.55;15.80;;;;;;;3.37;80.61;100503.70;1766396;81;21809;-75
2020/12/17 10:08:54;;;;;;;24.00;15.85;;;;;;;3.35;80.65;100502.84;1767449;81;22421;-75
2020/12/17 10:11:21;;;;;;;15.98;12.15;;;;;;;3.33;80.47;100501.97;1766729;81;21677;-76
2020/12/17 10:13:50;;;;;;;16.50;11.83;;;;;;;3.31;80.67;100501.96;1767038;80;21055;-78
2020/12/17 10:16:18;;;;;;;9.80;7.75;;;;;;;3.34;80.53;100501.13;1767429;81;21118;-75
2020/12/17 10:18:46;;;;;;;10.78;8.40;;;;;;;3.40;80.55;100498.55;1767288;81;21170;-77
2020/12/17 10:21:14;;;;;;;9.98;7.33;;;;;;;3.47;80.26;100497.73;1767277;81;21213;-75
2020/12/17 10:23:41;;;;;;;9.08;7.22;;;;;;;3.50;79.99;100498.17;1766451;81;21667;-71
2020/12/17 10:26:09;;;;;;;9.95;7.05;;;;;;;3.51;79.88;100498.61;1766489;81;21182;-75
2020/12/17 10:28:37;;;;;;;9.40;7.80;;;;;;;3.52;79.91;100496.47;1766553;81;21062;-76
2020/12/17 10:31:05;;;;;;;10.13;7.50;;;;;;;3.54;79.97;100496.05;1791404;79;21120;-74
2020/12/17 10:33:33;;;;;;;11.60;7.95;;;;;;;3.54;79.46;100489.62;1783960;80;22633;-88
2020/12/17 10:36:02;;;;;;;8.00;6.35;;;;;;;3.43;79.63;100491.71;1785494;80;21159;-76
2020/12/17 10:38:29;;;;;;;19.27;8.50;;;;;;;3.39;79.54;100492.58;1783441;80;21187;-79
2020/12/17 10:40:57;;;;;;;11.63;10.38;;;;;;;3.32;79.70;100486.11;1784628;80;21119;-81
2020/12/17 10:43:25;;;;;;;9.95;8.13;;;;;;;3.30;79.82;100484.81;1783808;80;21124;-78
2020/12/17 10:45:53;;;;;;;11.78;9.93;;;;;;;3.30;80.20;100480.95;1773636;80;21802;-76
2020/12/17 10:48:21;;;;;;;13.13;9.30;;;;;;;3.34;80.18;100476.27;1753200;81;21123;-77
2020/12/17 10:50:51;;;;;;;10.48;8.18;;;;;;;3.35;80.15;100480.98;1752337;81;21160;-79
2020/12/17 10:53:23;;;;;;;12.20;8.95;;;;;;;3.36;80.39;100476.27;1753358;81;21137;-81
2020/12/17 10:55:52;;;;;;;10.80;8.13;;;;;;;3.40;80.60;100476.27;1752242;81;21238;-75
2020/12/17 10:58:20;;;;;;;9.55;7.75;;;;;;;3.43;80.43;100481.85;1752405;81;21481;-71
2020/12/17 11:00:47;;;;;;;9.73;8.20;;;;;;;3.49;80.31;100478.45;1752307;81;21202;-76
2020/12/17 11:03:15;;;;;;;8.78;7.33;;;;;;;3.52;80.30;100474.18;1752567;81;21643;-73
2020/12/17 11:05:43;;;;;;;10.72;8.55;;;;;;;3.54;80.03;100474.19;1727442;81;21574;-71
2020/12/17 11:08:13;;;;;;;11.18;7.65;;;;;;;3.50;79.82;100485.31;1753329;81;21517;-75
2020/12/17 11:10:42;;;;;;;9.33;8.28;;;;;;;3.48;79.68;100487.02;1753132;81;21340;-74
2020/12/17 11:13:14;;;;;;;9.60;7.45;;;;;;;3.43;79.81;100484.42;1751977;81;21254;-79
2020/12/17 11:15:42;;;;;;;12.53;9.25;;;;;;;3.40;79.94;100485.69;1727421;81;21230;-71
2020/12/17 11:18:11;;;;;;;11.88;10.68;;;;;;;3.38;79.98;100480.58;1759753;80;21190;-73
2020/12/17 11:20:39;;;;;;;15.15;12.75;;;;;;;3.33;80.02;100485.26;1753875;81;21171;-77
2020/12/17 11:23:08;;;;;;;14.45;12.47;;;;;;;3.33;80.14;100488.69;1761474;81;22273;-77
2020/12/17 11:25:39;;;;;;;17.92;13.80;;;;;;;3.36;80.17;100491.70;1761749;81;21273;-78
2020/12/17 11:28:13;;;;;;;21.68;12.55;;;;;;;3.34;80.11;100487.84;1762325;81;21214;-84
2020/12/17 11:30:41;;;;;;;15.18;11.43;;;;;;;3.29;80.08;100492.52;1761151;81;21233;-80
2020/12/17 11:33:09;;;;;;;17.00;11.60;;;;;;;3.21;80.12;100498.04;1761681;80;21162;-79
2020/12/17 11:35:37;;;;;;;13.88;10.23;;;;;;;3.15;80.40;100492.47;1765070;81;21217;-77
2020/12/17 11:38:05;;;;;;;12.65;9.93;;;;;;;3.14;80.55;100495.03;1771018;80;21246;-79
2020/12/17 11:40:34;;;;;;;13.03;10.82;;;;;;;3.10;80.63;100496.72;1730736;81;21200;-80
2020/12/17 11:43:05;;;;;;;15.25;11.15;;;;;;;3.07;80.85;100494.98;1733179;81;21206;-81
2020/12/17 11:45:34;;;;;;;13.68;9.75;;;;;;;3.10;80.81;100496.72;1773723;79;21694;-80